createdAt,value
2018-05-25T00:00:44.675Z,19.13
2018-05-25T00:03:12.155Z,19.67
2018-05-25T00:05:39.636Z,19.20
2018-05-25T00:08:07.088Z,19.70
2018-05-25T00:10:34.603Z,20.83
2018-05-25T00:13:02.067Z,19.50
2018-05-25T00:15:29.526Z,19.80
2018-05-25T00:17:57.003Z,21.27
2018-05-25T00:20:24.471Z,21.37
2018-05-25T00:22:51.949Z,24.03
2018-05-25T00:25:19.404Z,21.60
2018-05-25T00:27:46.896Z,20.40
2018-05-25T00:30:14.360Z,21.63
2018-05-25T00:32:41.823Z,20.17
2018-05-25T00:35:09.303Z,20.30
2018-05-25T00:37:36.772Z,19.33
2018-05-25T00:40:04.255Z,19.00
2018-05-25T00:42:31.739Z,18.00
2018-05-25T00:44:59.240Z,18.50
2018-05-25T00:47:26.704Z,21.60
2018-05-25T00:49:54.159Z,19.70
2018-05-25T00:52:21.648Z,20.40
2018-05-25T00:55:00.876Z,20.30
2018-05-25T00:57:28.355Z,20.17
2018-05-25T00:59:55.815Z,21.47
2018-05-25T01:02:23.315Z,18.47
2018-05-25T01:04:50.776Z,20.20
2018-05-25T01:07:18.239Z,18.93
2018-05-25T01:09:45.719Z,19.47
2018-05-25T01:12:13.167Z,21.40
2018-05-25T01:14:40.674Z,21.90
2018-05-25T01:17:08.123Z,23.10
2018-05-25T01:19:35.755Z,22.20
2018-05-25T01:22:03.208Z,22.40
2018-05-25T01:24:30.664Z,25.10
2018-05-25T01:26:58.140Z,25.17
2018-05-25T01:29:25.603Z,26.80
2018-05-25T01:31:53.079Z,28.83
2018-05-25T01:34:20.535Z,31.60
2018-05-25T01:36:48.044Z,30.23
2018-05-25T01:39:15.503Z,32.23
2018-05-25T01:41:42.960Z,38.53
2018-05-25T01:44:10.452Z,33.60
2018-05-25T01:46:37.924Z,33.77
2018-05-25T01:49:05.449Z,33.93
2018-05-25T01:51:32.905Z,35.47
2018-05-25T01:54:00.632Z,34.07
2018-05-25T01:56:28.112Z,34.33
2018-05-25T01:58:55.580Z,32.40
2018-05-25T02:01:23.061Z,35.77
2018-05-25T02:03:50.539Z,37.70
2018-05-25T02:06:18.012Z,33.87
2018-05-25T02:08:45.463Z,36.30
2018-05-25T02:11:13.248Z,35.63
2018-05-25T02:13:40.705Z,36.27
2018-05-25T02:16:08.159Z,34.47
2018-05-25T02:18:35.632Z,36.17
2018-05-25T02:21:03.092Z,38.87
2018-05-25T02:23:30.600Z,34.77
2018-05-25T02:25:58.059Z,34.40
2018-05-25T02:28:25.695Z,31.60
2018-05-25T02:30:53.162Z,36.10
2018-05-25T02:33:20.615Z,32.80
2018-05-25T02:35:48.115Z,32.93
2018-05-25T02:38:15.572Z,33.50
2018-05-25T02:40:43.056Z,36.50
2018-05-25T02:43:10.512Z,35.80
2018-05-25T02:45:38.042Z,33.37
2018-05-25T02:48:05.508Z,36.07
2018-05-25T02:50:32.968Z,34.90
2018-05-25T02:53:00.445Z,35.00
2018-05-25T02:55:27.915Z,35.10
2018-05-25T02:57:55.408Z,34.80
2018-05-25T03:00:22.898Z,35.67
2018-05-25T03:02:50.389Z,36.80
2018-05-25T03:05:17.873Z,36.80
2018-05-25T03:07:45.328Z,32.33
2018-05-25T03:10:12.947Z,36.27
2018-05-25T03:12:40.408Z,32.47
2018-05-25T03:15:07.872Z,32.50
2018-05-25T03:17:35.373Z,31.20
2018-05-25T03:20:02.837Z,32.77
2018-05-25T03:22:30.335Z,30.03
2018-05-25T03:24:57.804Z,29.00
2018-05-25T03:27:25.263Z,29.77
2018-05-25T03:29:52.743Z,30.80
2018-05-25T03:32:20.199Z,34.20
2018-05-25T03:34:47.695Z,31.13
2018-05-25T03:37:15.156Z,31.17
2018-05-25T03:39:42.643Z,30.43
2018-05-25T03:42:10.108Z,32.83
2018-05-25T03:44:37.592Z,32.97
2018-05-25T03:47:05.084Z,30.27
2018-05-25T03:49:32.539Z,31.67
2018-05-25T03:52:00.040Z,29.10
2018-05-25T03:54:27.521Z,31.63
2018-05-25T03:56:55.127Z,28.53
2018-05-25T04:02:22.960Z,30.50
2018-05-25T04:04:50.412Z,26.80
2018-05-25T04:07:17.884Z,28.47
2018-05-25T04:09:45.367Z,28.03
2018-05-25T04:12:12.824Z,29.07
2018-05-25T04:14:40.307Z,27.57
2018-05-25T04:17:07.772Z,27.60
2018-05-25T04:19:35.400Z,26.27
2018-05-25T04:22:02.872Z,24.80
2018-05-25T04:24:30.336Z,28.23
2018-05-25T04:26:57.860Z,25.90
2018-05-25T04:29:25.332Z,26.97
2018-05-25T04:31:52.860Z,26.83
2018-05-25T04:34:20.320Z,24.80
2018-05-25T04:36:48.051Z,24.47
2018-05-25T04:39:15.524Z,26.47
2018-05-25T04:41:43.002Z,26.67
2018-05-25T04:44:10.585Z,28.77
2018-05-25T04:46:38.047Z,24.97
2018-05-25T04:49:05.523Z,26.90
2018-05-25T04:51:32.988Z,27.40
2018-05-25T04:54:00.475Z,26.03
2018-05-25T04:56:27.955Z,25.70
2018-05-25T04:58:55.443Z,27.87
2018-05-25T05:01:22.915Z,28.07
2018-05-25T05:03:50.372Z,26.93
2018-05-25T05:06:17.849Z,26.73
2018-05-25T05:08:45.315Z,28.63
2018-05-25T05:11:13.212Z,28.47
2018-05-25T05:13:40.704Z,28.50
2018-05-25T05:16:08.176Z,27.07
2018-05-25T05:18:35.656Z,26.80
2018-05-25T05:21:03.123Z,28.30
2018-05-25T05:23:30.602Z,27.43
2018-05-25T05:25:58.061Z,27.20
2018-05-25T05:28:25.721Z,29.93
2018-05-25T05:30:53.178Z,31.57
2018-05-25T05:33:20.647Z,30.30
2018-05-25T05:35:48.139Z,30.20
2018-05-25T05:38:15.641Z,26.93
2018-05-25T05:40:43.127Z,28.73
2018-05-25T05:43:10.585Z,27.97
2018-05-25T05:45:38.081Z,32.40
2018-05-25T05:48:05.545Z,34.30
2018-05-25T05:50:33.071Z,36.47
2018-05-25T05:53:00.527Z,37.20
2018-05-25T05:55:27.996Z,38.83
2018-05-25T05:57:55.476Z,37.90
2018-05-25T06:00:22.931Z,40.27
2018-05-25T06:02:50.424Z,34.30
2018-05-25T06:05:17.879Z,37.57
2018-05-25T06:07:45.356Z,39.97
2018-05-25T06:10:12.839Z,40.20
2018-05-25T06:12:40.291Z,40.97
2018-05-25T06:15:07.774Z,38.93
2018-05-25T06:17:35.231Z,40.40
2018-05-25T06:20:02.800Z,42.77
2018-05-25T06:22:30.217Z,43.10
2018-05-25T06:24:57.696Z,41.60
2018-05-25T06:27:25.175Z,44.07
2018-05-25T06:29:52.632Z,43.30
2018-05-25T06:32:20.119Z,40.50
2018-05-25T06:34:47.632Z,43.30
2018-05-25T06:37:15.263Z,44.50
2018-05-25T06:39:42.727Z,42.40
2018-05-25T06:42:10.184Z,41.27
2018-05-25T06:44:37.672Z,45.10
2018-05-25T06:47:05.143Z,43.00
2018-05-25T06:49:32.622Z,46.03
2018-05-25T06:52:00.083Z,42.30
2018-05-25T06:54:27.851Z,43.20
2018-05-25T06:56:55.319Z,45.13
2018-05-25T06:59:22.793Z,41.63
2018-05-25T07:01:50.279Z,43.10
2018-05-25T07:04:17.740Z,41.57
2018-05-25T07:06:45.225Z,45.43
2018-05-25T07:09:12.683Z,45.30
2018-05-25T07:11:40.163Z,44.70
2018-05-25T07:14:07.665Z,44.57
2018-05-25T07:16:35.123Z,44.50
2018-05-25T07:19:02.628Z,46.60
2018-05-25T07:21:30.108Z,46.07
2018-05-25T07:23:57.585Z,46.17
2018-05-25T07:26:25.052Z,47.97
2018-05-25T07:28:52.539Z,46.77
2018-05-25T07:31:20.013Z,44.53
2018-05-25T07:33:47.488Z,43.63
2018-05-25T07:36:14.972Z,47.23
2018-05-25T07:38:42.443Z,43.30
2018-05-25T07:41:09.923Z,45.57
2018-05-25T07:43:37.383Z,44.63
2018-05-25T07:46:05.016Z,42.73
2018-05-25T07:48:32.463Z,43.70
2018-05-25T07:50:59.919Z,44.23
2018-05-25T07:53:27.398Z,44.23
2018-05-25T07:55:54.856Z,38.37
2018-05-25T07:58:22.365Z,38.03
2018-05-25T08:00:49.820Z,35.53
2018-05-25T08:03:17.516Z,33.00
2018-05-25T08:05:44.987Z,33.47
2018-05-25T08:08:12.448Z,30.23
2018-05-25T08:10:39.958Z,31.40
2018-05-25T08:13:07.419Z,32.00
2018-05-25T08:15:34.896Z,35.17
2018-05-25T08:18:02.380Z,36.23
2018-05-25T08:20:30.119Z,36.60
2018-05-25T08:22:57.580Z,36.70
2018-05-25T08:25:25.036Z,34.30
2018-05-25T08:27:52.518Z,33.50
2018-05-25T08:30:20.004Z,31.53
2018-05-25T08:32:47.475Z,29.87
2018-05-25T08:35:14.943Z,32.23
2018-05-25T08:37:42.622Z,32.00
2018-05-25T08:40:10.084Z,33.57
2018-05-25T08:42:37.547Z,33.13
2018-05-25T08:45:05.029Z,31.07
2018-05-25T08:47:32.483Z,35.27
2018-05-25T08:49:59.964Z,35.83
2018-05-25T08:52:27.474Z,29.73
2018-05-25T08:54:55.093Z,29.80
2018-05-25T08:57:22.547Z,32.27
2018-05-25T08:59:50.027Z,36.60
2018-05-25T09:02:17.528Z,39.57
2018-05-25T09:04:44.983Z,37.97
2018-05-25T09:07:12.479Z,34.83
2018-05-25T09:09:39.944Z,36.57
2018-05-25T09:12:07.452Z,36.40
2018-05-25T09:14:34.908Z,34.00
2018-05-25T09:17:02.361Z,35.27
2018-05-25T09:19:29.839Z,34.70
2018-05-25T09:21:57.361Z,31.87
2018-05-25T09:24:24.795Z,31.50
2018-05-25T09:26:52.252Z,31.97
2018-05-25T09:29:20.076Z,31.87
2018-05-25T09:31:47.531Z,28.80
2018-05-25T09:34:14.992Z,32.23
2018-05-25T09:36:42.471Z,29.17
2018-05-25T09:39:09.940Z,32.47
2018-05-25T09:41:37.415Z,29.70
2018-05-25T09:44:04.884Z,30.80
2018-05-25T09:46:32.383Z,30.60
2018-05-25T09:48:59.847Z,31.73
2018-05-25T09:51:27.320Z,31.63
2018-05-25T09:53:54.799Z,30.50
2018-05-25T09:56:22.267Z,31.70
2018-05-25T09:58:49.748Z,33.90
2018-05-25T10:01:17.236Z,29.53
2018-05-25T10:03:44.879Z,31.67
2018-05-25T10:06:12.355Z,27.40
2018-05-25T10:08:39.853Z,28.70
2018-05-25T10:11:07.313Z,31.10
2018-05-25T10:13:34.771Z,30.00
2018-05-25T10:16:02.258Z,26.00
2018-05-25T10:18:29.708Z,29.90
2018-05-25T10:20:57.193Z,30.63
2018-05-25T10:23:24.679Z,30.00
2018-05-25T10:25:52.157Z,27.90
2018-05-25T10:28:19.649Z,30.80
2018-05-25T10:30:47.153Z,29.30
2018-05-25T10:33:14.631Z,26.90
2018-05-25T10:35:42.084Z,27.40
2018-05-25T10:38:09.610Z,25.10
2018-05-25T10:40:37.115Z,24.77
2018-05-25T10:43:04.809Z,27.80
2018-05-25T10:45:32.311Z,23.73
2018-05-25T10:47:59.803Z,25.33
2018-05-25T10:50:27.260Z,24.43
2018-05-25T10:52:54.736Z,23.93
2018-05-25T10:55:22.187Z,26.77
2018-05-25T10:57:49.675Z,26.50
2018-05-25T11:00:17.128Z,23.40
2018-05-25T11:02:44.627Z,25.07
2018-05-25T11:05:12.107Z,27.27
2018-05-25T11:07:39.573Z,27.67
2018-05-25T11:10:07.365Z,27.40
2018-05-25T11:12:34.827Z,26.53
2018-05-25T11:15:02.299Z,22.50
2018-05-25T11:17:29.776Z,21.80
2018-05-25T11:19:57.251Z,22.70
2018-05-25T11:22:24.912Z,23.10
2018-05-25T11:24:52.394Z,19.90
2018-05-25T11:27:19.857Z,16.67
2018-05-25T11:29:47.355Z,20.07
2018-05-25T11:32:14.812Z,19.40
2018-05-25T11:34:42.486Z,17.67
2018-05-25T11:37:09.943Z,10.60
2018-05-25T11:39:37.472Z,11.00
2018-05-25T11:42:04.960Z,11.20
2018-05-25T11:44:32.407Z,9.60
2018-05-25T11:46:59.887Z,11.67
2018-05-25T11:49:27.336Z,11.17
2018-05-25T11:51:54.831Z,10.40
2018-05-25T11:54:22.290Z,11.00
2018-05-25T11:56:49.748Z,10.20
2018-05-25T11:59:17.228Z,10.10
2018-05-25T12:01:44.746Z,11.90
2018-05-25T12:04:12.183Z,11.90
2018-05-25T12:06:39.691Z,19.33
2018-05-25T12:09:07.179Z,17.03
2018-05-25T12:11:34.667Z,13.10
2018-05-25T12:14:02.129Z,17.33
2018-05-25T12:16:29.631Z,11.70
2018-05-25T12:18:57.089Z,11.10
2018-05-25T12:21:24.571Z,10.47
2018-05-25T12:23:52.033Z,12.30
2018-05-25T12:26:19.835Z,10.60
2018-05-25T12:28:47.292Z,11.70
2018-05-25T12:31:14.747Z,11.40
2018-05-25T12:33:42.224Z,11.60
2018-05-25T12:36:09.680Z,11.10
2018-05-25T12:38:37.171Z,10.30
2018-05-25T12:41:04.635Z,9.93
2018-05-25T12:43:32.548Z,10.00
2018-05-25T12:46:00.011Z,11.30
2018-05-25T12:48:27.483Z,10.33
2018-05-25T12:50:54.960Z,11.77
2018-05-25T12:53:22.419Z,9.90
2018-05-25T12:55:49.895Z,9.70
2018-05-25T12:58:17.352Z,10.57
2018-05-25T13:00:45.141Z,8.90
2018-05-25T13:03:12.603Z,10.87
2018-05-25T13:05:40.080Z,10.77
2018-05-25T13:08:07.561Z,10.90
2018-05-25T13:10:35.020Z,9.53
2018-05-25T13:13:02.496Z,8.70
2018-05-25T13:15:29.947Z,8.10
2018-05-25T13:17:57.443Z,8.00
2018-05-25T13:20:24.885Z,7.23
2018-05-25T13:22:52.335Z,8.77
2018-05-25T13:25:19.804Z,8.13
2018-05-25T13:27:47.262Z,8.67
2018-05-25T13:30:14.737Z,8.60
2018-05-25T13:32:42.195Z,10.17
2018-05-25T13:35:09.708Z,9.47
2018-05-25T13:37:37.160Z,8.80
2018-05-25T13:40:04.625Z,8.50
2018-05-25T13:42:32.118Z,9.07
2018-05-25T13:44:59.567Z,6.40
2018-05-25T13:47:27.039Z,4.57
2018-05-25T13:49:54.516Z,7.90
2018-05-25T13:52:22.031Z,7.20
2018-05-25T13:54:49.490Z,8.40
2018-05-25T13:57:16.955Z,9.33
2018-05-25T13:59:44.420Z,9.00
2018-05-25T14:02:11.892Z,7.07
2018-05-25T14:04:39.364Z,6.20
2018-05-25T14:07:06.864Z,5.93
2018-05-25T14:09:34.356Z,6.50
2018-05-25T14:12:01.807Z,5.90
2018-05-25T14:14:29.415Z,6.30
2018-05-25T14:16:56.875Z,6.80
2018-05-25T14:19:24.328Z,7.33
2018-05-25T14:21:51.804Z,6.70
2018-05-25T14:24:19.247Z,6.03
2018-05-25T14:26:46.728Z,5.80
2018-05-25T14:29:14.172Z,5.43
2018-05-25T14:31:41.617Z,5.13
2018-05-25T14:34:09.118Z,5.77
2018-05-25T14:36:36.593Z,6.90
2018-05-25T14:39:04.231Z,7.27
2018-05-25T14:41:31.752Z,7.97
2018-05-25T14:43:59.216Z,5.60
2018-05-25T14:46:26.692Z,6.67
2018-05-25T14:48:54.139Z,6.33
2018-05-25T14:51:21.608Z,6.60
2018-05-25T14:53:49.055Z,5.73
2018-05-25T14:56:16.730Z,5.00
2018-05-25T14:58:44.179Z,5.20
2018-05-25T15:01:11.652Z,5.10
2018-05-25T15:03:39.120Z,4.73
2018-05-25T15:06:06.610Z,4.10
2018-05-25T15:08:34.068Z,4.77
2018-05-25T15:11:01.526Z,5.47
2018-05-25T15:13:29.007Z,5.30
2018-05-25T15:15:56.472Z,5.30
2018-05-25T15:18:23.927Z,5.40
2018-05-25T15:20:51.400Z,5.10
2018-05-25T15:23:18.851Z,6.40
2018-05-25T15:25:46.335Z,6.30
2018-05-25T15:28:13.797Z,5.70
2018-05-25T15:30:41.756Z,5.93
2018-05-25T15:33:09.205Z,5.17
2018-05-25T15:35:36.653Z,5.40
2018-05-25T15:38:04.125Z,5.07
2018-05-25T15:40:31.572Z,5.20
2018-05-25T15:42:59.060Z,4.87
2018-05-25T15:45:26.503Z,5.13
2018-05-25T15:47:54.007Z,5.57
2018-05-25T15:50:21.460Z,3.70
2018-05-25T15:52:48.907Z,4.23
2018-05-25T15:55:16.410Z,5.37
2018-05-25T15:57:43.856Z,5.20
2018-05-25T16:00:11.371Z,4.70
2018-05-25T16:02:38.823Z,5.03
2018-05-25T16:05:06.312Z,4.60
2018-05-25T16:07:33.776Z,5.90
2018-05-25T16:10:01.224Z,5.13
2018-05-25T16:12:28.711Z,4.40
2018-05-25T16:14:56.185Z,4.63
2018-05-25T16:17:23.657Z,4.30
2018-05-25T16:19:51.163Z,3.70
2018-05-25T16:22:19.076Z,4.30
2018-05-25T16:24:46.542Z,5.13
2018-05-25T16:27:14.004Z,3.67
2018-05-25T16:29:41.477Z,4.20
2018-05-25T16:32:08.929Z,4.50
2018-05-25T16:34:36.404Z,2.80
2018-05-25T16:37:03.864Z,3.23
2018-05-25T16:39:31.364Z,3.73
2018-05-25T16:41:58.807Z,3.87
2018-05-25T16:44:26.256Z,3.87
2018-05-25T16:46:53.747Z,3.30
2018-05-25T16:49:21.207Z,3.70
2018-05-25T16:51:48.696Z,3.90
2018-05-25T16:54:16.152Z,4.10
2018-05-25T16:56:43.605Z,4.10
2018-05-25T16:59:11.142Z,3.30
2018-05-25T17:01:38.593Z,3.30
2018-05-25T17:04:06.369Z,3.63
2018-05-25T17:06:33.824Z,3.60
2018-05-25T17:09:01.280Z,4.30
2018-05-25T17:11:28.769Z,4.17
2018-05-25T17:13:56.219Z,3.73
2018-05-25T17:16:23.695Z,4.20
2018-05-25T17:18:51.163Z,4.10
2018-05-25T17:21:18.632Z,4.33
2018-05-25T17:23:46.092Z,4.50
2018-05-25T17:26:14.028Z,4.37
2018-05-25T17:28:41.477Z,4.23
2018-05-25T17:31:08.923Z,4.80
2018-05-25T17:33:36.395Z,4.97
2018-05-25T17:36:03.898Z,4.67
2018-05-25T17:38:31.336Z,5.50
2018-05-25T17:40:58.783Z,6.00
2018-05-25T17:43:26.396Z,4.57
2018-05-25T17:45:53.867Z,4.50
2018-05-25T17:48:21.315Z,5.70
2018-05-25T17:50:48.797Z,5.73
2018-05-25T17:53:16.247Z,5.60
2018-05-25T17:55:43.724Z,5.70
2018-05-25T17:58:11.187Z,5.63
2018-05-25T18:00:38.683Z,5.70
2018-05-25T18:03:06.136Z,5.13
2018-05-25T18:05:33.608Z,5.73
2018-05-25T18:08:01.081Z,5.00
2018-05-25T18:10:28.554Z,5.87
2018-05-25T18:12:56.032Z,6.20
2018-05-25T18:15:23.492Z,5.63
2018-05-25T18:17:51.135Z,5.90
2018-05-25T18:20:18.593Z,5.83
2018-05-25T18:22:46.044Z,6.63
2018-05-25T18:25:13.512Z,6.30
2018-05-25T18:27:40.963Z,7.17
2018-05-25T18:30:08.447Z,8.10
2018-05-25T18:32:35.960Z,5.77
2018-05-25T18:35:03.423Z,6.53
2018-05-25T18:37:30.871Z,6.70
2018-05-25T18:39:58.357Z,7.07
2018-05-25T18:42:25.844Z,6.70
2018-05-25T18:44:53.317Z,6.73
2018-05-25T18:47:20.790Z,7.87
2018-05-25T18:49:48.252Z,7.40
2018-05-25T18:52:15.752Z,6.83
2018-05-25T18:54:43.209Z,8.77
2018-05-25T18:57:10.675Z,8.37
2018-05-25T18:59:38.215Z,8.13
2018-05-25T19:02:05.660Z,8.13
2018-05-25T19:04:33.146Z,9.30
2018-05-25T19:07:00.637Z,8.90
2018-05-25T19:09:28.709Z,9.03
2018-05-25T19:11:56.178Z,8.83
2018-05-25T19:14:23.632Z,9.33
2018-05-25T19:16:51.113Z,9.30
2018-05-25T19:19:18.572Z,10.80
2018-05-25T19:21:46.061Z,10.60
2018-05-25T19:24:13.555Z,8.90
2018-05-25T19:26:41.073Z,10.67
2018-05-25T19:29:08.563Z,10.70
2018-05-25T19:31:36.028Z,10.60
2018-05-25T19:34:03.519Z,11.57
2018-05-25T19:36:31.128Z,11.60
2018-05-25T19:38:58.635Z,11.87
2018-05-25T19:41:26.163Z,12.70
2018-05-25T19:43:53.908Z,11.67
2018-05-25T19:46:21.373Z,11.23
2018-05-25T19:48:48.837Z,11.57
2018-05-25T19:51:16.346Z,10.53
2018-05-25T19:53:43.822Z,11.00
2018-05-25T19:56:11.325Z,9.67
2018-05-25T19:58:38.784Z,9.50
2018-05-25T20:01:06.548Z,8.40
2018-05-25T20:03:34.006Z,7.27
2018-05-25T20:06:01.513Z,7.83
2018-05-25T20:08:28.980Z,8.37
2018-05-25T20:10:56.451Z,7.30
2018-05-25T20:13:23.925Z,8.00
2018-05-25T20:15:51.392Z,7.83
2018-05-25T20:18:18.880Z,8.10
2018-05-25T20:20:46.373Z,6.70
2018-05-25T20:23:13.842Z,7.70
2018-05-25T20:25:41.324Z,7.73
2018-05-25T20:28:08.812Z,7.43
2018-05-25T20:30:36.324Z,7.60
2018-05-25T20:33:03.789Z,7.17
2018-05-25T20:35:31.272Z,8.17
2018-05-25T20:37:58.739Z,7.97
2018-05-25T20:40:26.248Z,8.10
2018-05-25T20:42:53.719Z,8.50
2018-05-25T20:45:21.172Z,7.60
2018-05-25T20:47:48.663Z,7.97
2018-05-25T20:50:16.108Z,7.60
2018-05-25T20:52:43.576Z,7.40
2018-05-25T20:55:11.027Z,7.63
2018-05-25T20:57:38.651Z,7.33
2018-05-25T21:00:06.113Z,8.30
2018-05-25T21:02:33.578Z,7.17
2018-05-25T21:05:01.056Z,7.70
2018-05-25T21:07:28.533Z,7.80
2018-05-25T21:09:56.034Z,7.47
2018-05-25T21:12:23.508Z,8.10
2018-05-25T21:14:50.996Z,7.90
2018-05-25T21:17:18.447Z,7.90
2018-05-25T21:19:45.899Z,7.70
2018-05-25T21:22:13.380Z,7.10
2018-05-25T21:24:40.895Z,7.10
2018-05-25T21:27:08.383Z,7.73
2018-05-25T21:29:35.849Z,9.07
2018-05-25T21:32:03.341Z,8.13
2018-05-25T21:34:30.800Z,8.40
2018-05-25T21:36:58.268Z,9.07
2018-05-25T21:39:25.749Z,9.20
2018-05-25T21:41:53.209Z,9.20
2018-05-25T21:44:20.679Z,8.73
2018-05-25T21:46:48.153Z,9.10
2018-05-25T21:49:15.717Z,9.70
2018-05-25T21:51:43.174Z,9.37
2018-05-25T21:54:10.627Z,9.27
2018-05-25T21:56:38.126Z,10.47
2018-05-25T21:59:06.172Z,7.50
2018-05-25T22:01:33.667Z,9.40
2018-05-25T22:04:01.128Z,9.80
2018-05-25T22:06:28.891Z,10.47
2018-05-25T22:08:56.385Z,11.30
2018-05-25T22:11:23.835Z,9.80
2018-05-25T22:13:51.311Z,9.70
2018-05-25T22:16:18.789Z,11.90
2018-05-25T22:18:46.287Z,10.03
2018-05-25T22:21:13.740Z,10.30
2018-05-25T22:23:41.239Z,11.70
2018-05-25T22:26:08.696Z,10.60
2018-05-25T22:28:36.148Z,10.63
2018-05-25T22:31:03.644Z,9.67
2018-05-25T22:33:31.119Z,10.83
2018-05-25T22:35:58.605Z,10.60
2018-05-25T22:38:26.111Z,10.83
2018-05-25T22:40:53.719Z,10.33
2018-05-25T22:43:33.028Z,8.90
2018-05-25T22:46:12.275Z,10.67
2018-05-25T22:48:51.583Z,9.83
2018-05-25T22:51:31.115Z,10.73
2018-05-25T22:54:03.699Z,9.67
2018-05-25T22:56:31.171Z,8.97
2018-05-25T22:58:58.648Z,10.30
2018-05-25T23:01:26.099Z,10.07
2018-05-25T23:03:53.578Z,9.97
2018-05-25T23:06:21.040Z,11.87
2018-05-25T23:08:48.519Z,10.30
2018-05-25T23:11:15.980Z,10.37
2018-05-25T23:13:43.475Z,10.37
2018-05-25T23:16:10.927Z,10.33
2018-05-25T23:18:38.444Z,10.77
2018-05-25T23:21:05.919Z,9.60
2018-05-25T23:23:33.378Z,10.03
2018-05-25T23:26:00.855Z,10.83
2018-05-25T23:28:28.327Z,10.23
2018-05-25T23:30:56.075Z,10.10
2018-05-25T23:33:23.532Z,10.07
2018-05-25T23:35:50.989Z,9.47
2018-05-25T23:38:18.471Z,10.47
2018-05-25T23:40:45.947Z,12.10
2018-05-25T23:43:13.424Z,10.10
2018-05-25T23:45:40.900Z,10.73
2018-05-25T23:48:08.761Z,10.83
2018-05-25T23:50:36.220Z,10.27
2018-05-25T23:53:03.708Z,10.10
2018-05-25T23:55:31.191Z,10.30
2018-05-25T23:57:58.639Z,10.50
